Time;durP1;ratioP1;P1;durP2;ratioP2;P2;SDS_P1;SDS_P2;PMS_P1;PMS_P2;Temp;Humidity;BMP_temperature;BMP_pressure;BME280_temperature;BME280_humidity;BME280_pressure;Samples;Min_cycle;Max_cycle;Signal;HPM_P1;HPM_P2
2022/12/28 00:01:29;;;;;;;2.07;1.27;;;;;;;;;;5081069;28;20024;-88
2022/12/28 00:03:57;;;;;;;1.45;1.33;;;;;;;;;;5081365;28;20137;-89
2022/12/28 00:06:23;;;;;;;2.03;1.50;;;;;;;;;;5081165;28;20036;-88
2022/12/28 00:08:52;;;;;;;1.83;1.40;;;;;;;;;;5080973;28;20464;-85
2022/12/28 00:11:19;;;;;;;1.30;0.93;;;;;;;;;;5098106;28;20012;-86
2022/12/28 00:13:45;;;;;;;2.70;1.95;;;;;;;;;;5080348;28;20031;-85
2022/12/28 00:16:36;;;;;;;4.53;2.22;;;;;;;;;;5078781;28;20468;-86
2022/12/28 00:19:05;;;;;;;4.18;2.15;;;;;;;;;;5094078;28;20031;-86
2022/12/28 00:21:30;;;;;;;3.58;1.80;;;;;;;;;;5079592;28;20020;-87
2022/12/28 00:23:59;;;;;;;4.28;2.00;;;;;;;;;;5079487;28;20061;-88
2022/12/28 00:26:27;;;;;;;2.33;1.67;;;;;;;;;;5096588;28;20048;-88
2022/12/28 00:28:52;;;;;;;6.03;2.33;;;;;;;;;;5095299;28;20698;-87
2022/12/28 00:31:18;;;;;;;1.75;1.55;;;;;;;;;;5078634;28;20070;-87
2022/12/28 00:33:43;;;;;;;1.25;1.13;;;;;;;;;;5097229;28;20024;-87
2022/12/28 00:36:12;;;;;;;3.85;1.80;;;;;;;;;;5077598;28;20052;-86
2022/12/28 00:38:38;;;;;;;1.70;1.35;;;;;;;;;;5077824;28;20028;-88
2022/12/28 00:41:05;;;;;;;1.60;1.50;;;;;;;;;;5097470;28;20024;-90
2022/12/28 00:43:30;;;;;;;1.67;1.38;;;;;;;;;;5080252;28;20028;-87
2022/12/28 00:45:56;;;;;;;3.65;1.92;;;;;;;;;;5078472;28;20088;-86
2022/12/28 00:48:22;;;;;;;2.30;1.08;;;;;;;;;;5079447;28;20036;-83
2022/12/28 00:50:48;;;;;;;1.67;1.17;;;;;;;;;;5096543;28;20036;-86
2022/12/28 00:53:13;;;;;;;3.60;1.75;;;;;;;;;;5096836;28;20471;-85
2022/12/28 00:55:39;;;;;;;4.03;2.33;;;;;;;;;;5078454;28;20035;-83
2022/12/28 00:58:06;;;;;;;0.90;0.82;;;;;;;;;;5096098;28;20031;-85
2022/12/28 01:00:32;;;;;;;1.00;1.00;;;;;;;;;;5094418;28;20028;-84
2022/12/28 01:02:57;;;;;;;3.60;1.33;;;;;;;;;;5096987;28;20078;-87
2022/12/28 01:05:23;;;;;;;2.50;1.55;;;;;;;;;;5076953;28;20549;-83
2022/12/28 01:07:49;;;;;;;6.55;1.42;;;;;;;;;;5095647;28;20480;-89
2022/12/28 01:10:14;;;;;;;3.67;2.28;;;;;;;;;;5078930;28;20024;-83
2022/12/28 01:12:40;;;;;;;2.70;1.77;;;;;;;;;;5095966;28;20032;-86
2022/12/28 01:15:07;;;;;;;3.70;1.77;;;;;;;;;;5094841;28;20024;-82
2022/12/28 01:17:33;;;;;;;2.13;1.65;;;;;;;;;;5094595;28;20102;-88
2022/12/28 01:19:59;;;;;;;3.13;2.03;;;;;;;;;;5077774;28;20452;-86
2022/12/28 01:22:25;;;;;;;2.13;1.73;;;;;;;;;;5096588;28;20395;-87
2022/12/28 01:24:51;;;;;;;4.55;2.65;;;;;;;;;;5077278;28;20016;-87
2022/12/28 01:27:16;;;;;;;4.78;2.42;;;;;;;;;;5078431;28;20051;-85
2022/12/28 01:29:42;;;;;;;3.17;2.15;;;;;;;;;;5077999;28;20020;-85
2022/12/28 01:32:07;;;;;;;5.03;2.92;;;;;;;;;;5077408;28;20489;-86
2022/12/28 01:34:33;;;;;;;3.78;2.38;;;;;;;;;;5077644;28;20701;-87
2022/12/28 01:36:59;;;;;;;2.22;1.95;;;;;;;;;;5072488;28;20432;-86
2022/12/28 01:39:24;;;;;;;3.47;2.00;;;;;;;;;;5076946;28;20020;-85
2022/12/28 01:41:52;;;;;;;1.77;1.55;;;;;;;;;;5075665;28;20544;-86
2022/12/28 01:44:24;;;;;;;1.77;1.50;;;;;;;;;;5059804;28;20051;-87
2022/12/28 01:46:56;;;;;;;3.88;1.95;;;;;;;;;;5076147;28;20107;-85
2022/12/28 01:49:33;;;;;;;5.75;1.83;;;;;;;;;;5072502;28;20054;-86
2022/12/28 01:52:30;;;;;;;3.40;1.90;;;;;;;;;;5074629;28;20031;-85
2022/12/28 01:55:10;;;;;;;3.97;2.97;;;;;;;;;;5060950;28;20036;-86
2022/12/28 01:57:47;;;;;;;3.38;1.92;;;;;;;;;;5065277;28;20028;-87
2022/12/28 02:00:14;;;;;;;3.90;1.92;;;;;;;;;;5075429;28;20062;-86
2022/12/28 02:02:57;;;;;;;5.18;2.05;;;;;;;;;;5069523;28;20068;-86
2022/12/28 02:05:28;;;;;;;3.83;2.13;;;;;;;;;;5067386;28;20426;-86
2022/12/28 02:08:00;;;;;;;3.28;2.15;;;;;;;;;;5070102;28;20435;-85
2022/12/28 02:10:30;;;;;;;2.67;2.47;;;;;;;;;;5072903;28;20050;-85
2022/12/28 02:12:56;;;;;;;2.40;1.90;;;;;;;;;;5074684;28;20055;-84
2022/12/28 02:15:22;;;;;;;2.65;2.03;;;;;;;;;;5093383;28;20551;-85
2022/12/28 02:17:47;;;;;;;1.92;1.30;;;;;;;;;;5093729;28;20067;-84
2022/12/28 02:20:13;;;;;;;3.08;1.58;;;;;;;;;;5076085;28;20104;-86
2022/12/28 02:23:11;;;;;;;4.03;1.98;;;;;;;;;;5095091;28;20016;-86
2022/12/28 02:25:55;;;;;;;2.33;1.73;;;;;;;;;;5075765;28;20428;-82
2022/12/28 02:28:23;;;;;;;1.45;1.00;;;;;;;;;;5074920;28;20033;-83
2022/12/28 02:31:28;;;;;;;3.85;2.40;;;;;;;;;;5075076;28;20033;-86
2022/12/28 02:34:14;;;;;;;2.63;2.25;;;;;;;;;;5054029;28;20024;-86
2022/12/28 02:36:45;;;;;;;2.92;1.98;;;;;;;;;;5072779;28;20036;-86
2022/12/28 02:39:17;;;;;;;3.50;2.78;;;;;;;;;;5074044;28;20060;-85
2022/12/28 02:41:45;;;;;;;3.53;1.98;;;;;;;;;;5056396;28;20028;-86
2022/12/28 02:44:11;;;;;;;5.60;2.47;;;;;;;;;;5073735;28;20074;-86
2022/12/28 02:52:28;;;;;;;2.60;1.13;;;;;;;;;;5074124;28;20498;-88
2022/12/28 02:58:22;;;;;;;2.92;2.03;;;;;;;;;;5075660;28;20101;-87
2022/12/28 03:01:16;;;;;;;1.98;0.88;;;;;;;;;;5064874;28;20495;-87
2022/12/28 03:03:53;;;;;;;2.15;1.52;;;;;;;;;;5075276;28;20029;-88
2022/12/28 03:09:47;;;;;;;1.73;1.30;;;;;;;;;;5041953;28;20035;-88
2022/12/28 03:12:22;;;;;;;3.00;2.22;;;;;;;;;;5050245;28;20115;-89
2022/12/28 03:14:56;;;;;;;1.67;1.42;;;;;;;;;;5055015;28;20028;-87
2022/12/28 03:31:29;;;;;;;1.17;1.05;;;;;;;;;;5094150;28;20636;-88
2022/12/28 03:34:05;;;;;;;1.58;1.38;;;;;;;;;;5076258;28;20020;-88
2022/12/28 03:37:03;;;;;;;3.40;1.10;;;;;;;;;;5076270;28;20154;-88
2022/12/28 03:39:48;;;;;;;2.42;1.20;;;;;;;;;;5076173;28;20021;-88
2022/12/28 03:45:31;;;;;;;4.72;2.17;;;;;;;;;;5091847;28;20051;-88
2022/12/28 03:48:01;;;;;;;1.98;1.58;;;;;;;;;;5075471;28;20035;-86
2022/12/28 03:50:27;;;;;;;1.33;1.05;;;;;;;;;;5075236;28;20024;-88
2022/12/28 03:52:53;;;;;;;1.70;1.30;;;;;;;;;;5076134;28;20024;-87
2022/12/28 03:55:19;;;;;;;3.92;1.80;;;;;;;;;;5076189;28;20031;-89
2022/12/28 03:57:44;;;;;;;3.78;1.95;;;;;;;;;;5075200;28;20023;-88
2022/12/28 04:00:10;;;;;;;3.25;2.33;;;;;;;;;;5075385;28;20387;-87
2022/12/28 04:02:36;;;;;;;2.13;1.48;;;;;;;;;;5075295;28;20037;-87
2022/12/28 04:05:03;;;;;;;2.97;1.73;;;;;;;;;;5076067;28;20369;-87
2022/12/28 04:07:28;;;;;;;3.78;1.85;;;;;;;;;;5075558;28;20023;-89
2022/12/28 04:09:54;;;;;;;3.15;2.03;;;;;;;;;;5075289;28;20027;-86
2022/12/28 04:12:20;;;;;;;1.67;1.55;;;;;;;;;;5075984;28;20027;-87
2022/12/28 04:14:45;;;;;;;3.10;1.27;;;;;;;;;;5079626;28;20028;-85
2022/12/28 04:17:10;;;;;;;7.32;1.95;;;;;;;;;;5079175;28;20034;-85
2022/12/28 04:19:39;;;;;;;3.13;1.83;;;;;;;;;;5096695;28;20073;-89
2022/12/28 04:22:04;;;;;;;1.40;1.30;;;;;;;;;;5079639;28;20096;-89
2022/12/28 04:24:30;;;;;;;2.60;1.65;;;;;;;;;;5079387;28;20485;-88
2022/12/28 04:26:56;;;;;;;3.03;1.52;;;;;;;;;;5078679;28;20104;-87
2022/12/28 04:29:23;;;;;;;2.22;1.52;;;;;;;;;;5079468;28;20051;-89
2022/12/28 04:31:49;;;;;;;2.35;1.38;;;;;;;;;;5093127;28;20106;-87
2022/12/28 04:34:14;;;;;;;2.90;1.65;;;;;;;;;;5079086;28;20062;-86
2022/12/28 04:36:41;;;;;;;3.15;1.77;;;;;;;;;;5079285;28;20028;-87
2022/12/28 04:39:07;;;;;;;5.20;1.85;;;;;;;;;;5078574;28;20031;-86
2022/12/28 04:41:33;;;;;;;1.10;1.00;;;;;;;;;;5092357;28;20024;-87
2022/12/28 04:43:59;;;;;;;3.47;2.00;;;;;;;;;;5079014;28;20030;-86
2022/12/28 04:46:24;;;;;;;3.45;2.33;;;;;;;;;;5079089;28;20468;-87
2022/12/28 04:48:50;;;;;;;2.15;1.38;;;;;;;;;;5078395;28;20039;-87
2022/12/28 04:51:20;;;;;;;1.00;0.93;;;;;;;;;;5096574;28;20016;-86
2022/12/28 04:53:46;;;;;;;3.17;1.83;;;;;;;;;;5078310;28;20024;-86
2022/12/28 04:56:13;;;;;;;3.78;2.95;;;;;;;;;;5078777;28;20028;-88
2022/12/28 04:58:39;;;;;;;2.83;1.58;;;;;;;;;;5077666;28;20035;-84
2022/12/28 05:01:10;;;;;;;3.40;1.98;;;;;;;;;;5092378;28;20031;-87
2022/12/28 05:03:38;;;;;;;1.83;1.55;;;;;;;;;;5094628;28;20391;-85
2022/12/28 05:06:06;;;;;;;2.30;1.30;;;;;;;;;;5078199;28;20031;-86
2022/12/28 05:08:35;;;;;;;2.00;1.55;;;;;;;;;;5096037;28;20097;-87
2022/12/28 05:11:06;;;;;;;1.98;1.48;;;;;;;;;;5092264;28;20023;-87
2022/12/28 05:13:32;;;;;;;1.20;1.02;;;;;;;;;;5074451;28;20476;-88
2022/12/28 05:16:10;;;;;;;0.90;0.82;;;;;;;;;;5076481;28;20035;-86
2022/12/28 05:18:35;;;;;;;2.10;1.20;;;;;;;;;;5094064;28;20024;-88
2022/12/28 05:21:07;;;;;;;2.28;1.40;;;;;;;;;;5075900;28;20073;-88
2022/12/28 05:23:34;;;;;;;5.55;2.20;;;;;;;;;;5093049;28;20020;-86
2022/12/28 05:26:00;;;;;;;2.47;1.58;;;;;;;;;;5093420;28;20102;-85
2022/12/28 05:28:26;;;;;;;1.70;1.45;;;;;;;;;;5092746;28;20106;-83
2022/12/28 05:30:51;;;;;;;2.60;2.13;;;;;;;;;;5093375;28;20368;-84
2022/12/28 05:33:18;;;;;;;3.85;2.40;;;;;;;;;;5093032;28;20028;-88
2022/12/28 05:35:43;;;;;;;5.75;3.22;;;;;;;;;;5075952;28;20118;-88
2022/12/28 05:38:09;;;;;;;3.20;1.95;;;;;;;;;;5074133;28;20103;-88
2022/12/28 05:40:34;;;;;;;3.50;2.13;;;;;;;;;;5075980;28;20060;-87
2022/12/28 05:43:00;;;;;;;5.18;2.28;;;;;;;;;;5076168;28;20114;-88
2022/12/28 05:45:25;;;;;;;1.67;1.45;;;;;;;;;;5074785;28;20122;-89
2022/12/28 05:47:53;;;;;;;4.32;1.95;;;;;;;;;;5094031;28;20035;-89
2022/12/28 05:50:19;;;;;;;3.33;2.13;;;;;;;;;;5075167;28;20460;-88
2022/12/28 05:52:44;;;;;;;3.03;1.55;;;;;;;;;;5075213;28;20028;-88
2022/12/28 05:55:10;;;;;;;3.47;2.35;;;;;;;;;;5074227;28;20034;-88
2022/12/28 05:57:35;;;;;;;1.70;1.27;;;;;;;;;;5093242;28;20027;-88
2022/12/28 06:00:01;;;;;;;2.83;1.83;;;;;;;;;;5075785;28;20059;-88
2022/12/28 06:02:41;;;;;;;2.42;1.48;;;;;;;;;;5075407;28;20038;-87
2022/12/28 06:05:07;;;;;;;3.38;2.58;;;;;;;;;;5092217;28;20020;-89
2022/12/28 06:07:33;;;;;;;5.20;2.63;;;;;;;;;;5074015;28;20077;-87
2022/12/28 06:09:58;;;;;;;1.67;1.42;;;;;;;;;;5075413;28;20019;-88
2022/12/28 06:12:24;;;;;;;1.55;1.25;;;;;;;;;;5093592;28;20567;-86
2022/12/28 06:14:49;;;;;;;5.53;2.63;;;;;;;;;;5074602;28;20026;-88
2022/12/28 06:17:14;;;;;;;6.60;3.30;;;;;;;;;;5074627;28;20034;-89
2022/12/28 06:19:42;;;;;;;7.20;3.22;;;;;;;;;;5093172;28;20472;-87
2022/12/28 06:22:07;;;;;;;5.30;2.80;;;;;;;;;;5093236;28;20483;-88
2022/12/28 06:24:33;;;;;;;2.83;2.17;;;;;;;;;;5074857;28;20054;-88
2022/12/28 06:26:58;;;;;;;5.28;2.03;;;;;;;;;;5075004;28;20143;-88
2022/12/28 06:29:23;;;;;;;4.22;2.03;;;;;;;;;;5093329;28;20388;-87
2022/12/28 06:31:50;;;;;;;3.08;1.80;;;;;;;;;;5075023;28;20023;-89
2022/12/28 06:34:16;;;;;;;3.08;1.80;;;;;;;;;;5074736;28;20144;-88
2022/12/28 06:36:43;;;;;;;2.42;1.35;;;;;;;;;;5074318;28;20111;-88
2022/12/28 06:39:12;;;;;;;1.45;1.20;;;;;;;;;;5092993;28;20031;-87
2022/12/28 06:41:37;;;;;;;2.55;1.15;;;;;;;;;;5074544;28;20031;-88
2022/12/28 06:44:07;;;;;;;3.95;1.25;;;;;;;;;;5074051;28;20028;-87
2022/12/28 06:46:33;;;;;;;2.17;1.08;;;;;;;;;;5073711;28;20035;-86
2022/12/28 06:48:59;;;;;;;1.85;1.30;;;;;;;;;;5092489;28;20345;-86
2022/12/28 06:51:27;;;;;;;1.98;1.15;;;;;;;;;;5073865;28;20138;-87
2022/12/28 06:53:53;;;;;;;2.45;0.80;;;;;;;;;;5074070;28;20036;-88
2022/12/28 06:56:20;;;;;;;1.58;1.42;;;;;;;;;;5074540;28;20047;-89
2022/12/28 06:58:48;;;;;;;1.92;1.58;;;;;;;;;;5074379;28;20096;-88
2022/12/28 07:01:18;;;;;;;2.05;1.45;;;;;;;;;;5076953;28;20111;-89
2022/12/28 07:03:44;;;;;;;2.45;1.63;;;;;;;;;;5073958;28;20426;-89
2022/12/28 07:06:11;;;;;;;3.55;1.92;;;;;;;;;;5091338;28;20855;-88
2022/12/28 07:08:37;;;;;;;2.30;1.65;;;;;;;;;;5091059;28;20074;-88
2022/12/28 07:11:07;;;;;;;1.70;1.30;;;;;;;;;;5091592;28;20028;-85
2022/12/28 07:13:33;;;;;;;2.78;1.40;;;;;;;;;;5090418;28;20024;-89
2022/12/28 07:16:25;;;;;;;2.65;1.45;;;;;;;;;;5073393;28;20032;-88
2022/12/28 07:18:51;;;;;;;2.03;1.73;;;;;;;;;;5063475;28;20436;-87
2022/12/28 07:21:20;;;;;;;3.03;1.35;;;;;;;;;;5073681;28;20028;-85
2022/12/28 07:23:46;;;;;;;2.45;1.60;;;;;;;;;;5073585;28;20035;-87
2022/12/28 07:26:15;;;;;;;4.30;2.67;;;;;;;;;;5090072;28;20044;-87
2022/12/28 07:28:44;;;;;;;6.50;3.53;;;;;;;;;;5091442;28;20087;-88
2022/12/28 07:31:15;;;;;;;3.83;2.72;;;;;;;;;;5072857;28;20360;-87
2022/12/28 07:33:41;;;;;;;5.97;2.88;;;;;;;;;;5091300;28;20028;-87
2022/12/28 07:36:10;;;;;;;4.68;2.47;;;;;;;;;;5073574;28;20024;-86
2022/12/28 07:38:35;;;;;;;3.83;2.33;;;;;;;;;;5073671;28;20055;-87
2022/12/28 07:41:07;;;;;;;5.60;3.03;;;;;;;;;;5073725;28;20545;-86
2022/12/28 07:43:33;;;;;;;5.25;3.33;;;;;;;;;;5073098;28;20103;-86
2022/12/28 07:46:03;;;;;;;6.07;3.10;;;;;;;;;;5091042;28;20039;-85
2022/12/28 07:48:30;;;;;;;2.78;2.05;;;;;;;;;;5094363;28;20059;-86
2022/12/28 07:50:56;;;;;;;3.38;2.50;;;;;;;;;;5094184;28;20341;-86
2022/12/28 07:53:21;;;;;;;4.13;2.53;;;;;;;;;;5095231;28;20107;-86
2022/12/28 07:55:55;;;;;;;8.50;5.00;;;;;;;;;;5095448;28;20099;-86
2022/12/28 07:58:20;;;;;;;4.07;2.78;;;;;;;;;;5091906;28;20059;-85
2022/12/28 08:00:46;;;;;;;10.85;6.35;;;;;;;;;;5094349;28;20059;-86
2022/12/28 08:03:11;;;;;;;3.05;2.25;;;;;;;;;;5077154;28;20099;-87
2022/12/28 08:05:39;;;;;;;2.97;2.22;;;;;;;;;;5077620;28;20107;-86
2022/12/28 08:08:04;;;;;;;3.30;2.13;;;;;;;;;;5095284;28;20073;-86
2022/12/28 08:10:30;;;;;;;2.53;1.70;;;;;;;;;;5077797;28;20364;-84
2022/12/28 08:12:58;;;;;;;4.85;3.47;;;;;;;;;;5078100;28;20089;-84
2022/12/28 08:15:23;;;;;;;3.65;2.50;;;;;;;;;;5076395;28;20032;-84
2022/12/28 08:17:49;;;;;;;4.90;2.58;;;;;;;;;;5094228;28;20035;-83
2022/12/28 08:20:14;;;;;;;4.35;2.20;;;;;;;;;;5093799;28;20020;-82
2022/12/28 08:22:40;;;;;;;4.43;1.95;;;;;;;;;;5094828;28;20413;-83
2022/12/28 08:25:06;;;;;;;4.20;3.08;;;;;;;;;;5094182;28;20499;-84
2022/12/28 08:27:34;;;;;;;4.25;3.05;;;;;;;;;;5090773;28;20169;-85
2022/12/28 08:29:59;;;;;;;2.72;2.15;;;;;;;;;;5091219;28;21584;-84
2022/12/28 08:32:25;;;;;;;2.53;2.33;;;;;;;;;;5093738;28;20027;-82
2022/12/28 08:34:50;;;;;;;4.30;2.53;;;;;;;;;;5074525;28;20383;-85
2022/12/28 08:37:16;;;;;;;3.38;2.53;;;;;;;;;;5091320;28;20027;-83
2022/12/28 08:39:44;;;;;;;6.80;3.33;;;;;;;;;;5092583;28;20027;-85
2022/12/28 08:42:09;;;;;;;3.38;2.50;;;;;;;;;;5074892;28;20081;-84
2022/12/28 08:44:34;;;;;;;5.82;2.63;;;;;;;;;;5075484;28;20035;-84
2022/12/28 08:47:03;;;;;;;5.60;3.25;;;;;;;;;;5074337;28;20035;-84
2022/12/28 08:49:28;;;;;;;6.07;3.25;;;;;;;;;;5075490;28;20028;-84
2022/12/28 08:51:54;;;;;;;5.72;2.83;;;;;;;;;;5075010;28;20034;-85
2022/12/28 08:54:19;;;;;;;6.65;2.55;;;;;;;;;;5065977;28;20518;-84
2022/12/28 08:56:45;;;;;;;4.25;2.42;;;;;;;;;;5074490;28;20031;-85
2022/12/28 08:59:17;;;;;;;4.63;2.85;;;;;;;;;;5091137;28;20861;-84
2022/12/28 09:01:43;;;;;;;3.85;2.60;;;;;;;;;;5074128;28;20035;-84
2022/12/28 09:04:13;;;;;;;3.78;2.70;;;;;;;;;;5076247;28;20062;-84
2022/12/28 09:06:38;;;;;;;4.20;2.42;;;;;;;;;;5075466;28;20699;-85
2022/12/28 09:09:10;;;;;;;5.05;2.88;;;;;;;;;;5094138;28;20125;-85
2022/12/28 09:11:37;;;;;;;3.65;2.80;;;;;;;;;;5091677;28;20184;-84
2022/12/28 09:14:04;;;;;;;4.05;2.47;;;;;;;;;;5094610;28;20099;-85
2022/12/28 09:16:30;;;;;;;3.53;2.45;;;;;;;;;;5077321;28;20505;-85
2022/12/28 09:18:58;;;;;;;4.45;3.70;;;;;;;;;;5094627;28;20107;-85
2022/12/28 09:21:26;;;;;;;3.25;2.28;;;;;;;;;;5094694;28;20079;-84
2022/12/28 09:23:51;;;;;;;3.38;2.10;;;;;;;;;;5075540;28;20110;-86
2022/12/28 09:26:29;;;;;;;3.25;2.33;;;;;;;;;;5094155;28;20469;-84
2022/12/28 09:29:00;;;;;;;8.15;3.50;;;;;;;;;;5075242;28;20063;-84
2022/12/28 09:31:29;;;;;;;4.50;2.92;;;;;;;;;;5075144;28;20099;-84
2022/12/28 09:34:03;;;;;;;5.55;3.30;;;;;;;;;;5086071;28;20032;-83
2022/12/28 09:36:35;;;;;;;4.22;2.88;;;;;;;;;;5074124;28;20026;-87
2022/12/28 09:39:12;;;;;;;5.32;3.38;;;;;;;;;;5076515;28;20055;-85
2022/12/28 09:41:40;;;;;;;5.03;2.40;;;;;;;;;;5076281;28;20102;-84
2022/12/28 09:44:37;;;;;;;;;;;;;;;;;;;;;
2022/12/28 09:50:37;;;;;;;2.40;1.88;;;;;;;;;;5090651;28;20028;-85
2022/12/28 09:53:14;;;;;;;3.92;2.40;;;;;;;;;;5058826;28;20529;-85
2022/12/28 09:55:44;;;;;;;2.92;2.33;;;;;;;;;;5073909;28;20529;-87
2022/12/28 09:58:14;;;;;;;3.58;2.17;;;;;;;;;;5089317;28;20438;-84
2022/12/28 10:00:51;;;;;;;5.47;2.85;;;;;;;;;;5093417;28;20024;-83
2022/12/28 10:03:36;;;;;;;4.07;2.47;;;;;;;;;;5092716;28;20038;-85
2022/12/28 10:06:03;;;;;;;3.47;2.63;;;;;;;;;;5081265;28;20028;-86
2022/12/28 10:08:29;;;;;;;4.53;3.28;;;;;;;;;;5068642;28;20426;-84
2022/12/28 10:10:59;;;;;;;4.05;2.17;;;;;;;;;;5064980;28;20135;-85
2022/12/28 10:13:28;;;;;;;5.60;3.10;;;;;;;;;;5083826;28;20020;-84
2022/12/28 10:15:54;;;;;;;3.63;2.60;;;;;;;;;;5064251;28;20476;-85
2022/12/28 10:18:26;;;;;;;5.40;3.45;;;;;;;;;;5083131;28;20388;-84
2022/12/28 10:20:54;;;;;;;3.88;2.53;;;;;;;;;;5066151;28;20024;-84
2022/12/28 10:23:26;;;;;;;5.25;3.45;;;;;;;;;;5078080;28;20036;-87
2022/12/28 10:25:54;;;;;;;2.40;1.70;;;;;;;;;;5071067;28;20484;-83
2022/12/28 10:28:22;;;;;;;5.05;2.45;;;;;;;;;;5080359;28;20020;-84
2022/12/28 10:31:04;;;;;;;6.30;3.20;;;;;;;;;;5054595;28;20013;-85
2022/12/28 10:33:30;;;;;;;2.47;1.67;;;;;;;;;;5083935;28;20028;-85
2022/12/28 10:35:58;;;;;;;4.53;2.40;;;;;;;;;;5064023;28;20027;-87
2022/12/28 10:38:30;;;;;;;3.83;2.65;;;;;;;;;;5082331;28;20025;-84
2022/12/28 10:41:08;;;;;;;2.50;2.17;;;;;;;;;;5082697;28;20097;-85
2022/12/28 10:43:42;;;;;;;3.75;2.22;;;;;;;;;;5087018;28;20027;-86
2022/12/28 10:46:17;;;;;;;4.63;3.22;;;;;;;;;;5089721;28;20470;-83
2022/12/28 10:48:54;;;;;;;4.00;2.75;;;;;;;;;;5081657;28;20051;-84
2022/12/28 10:51:23;;;;;;;4.15;2.33;;;;;;;;;;5077752;28;20023;-85
2022/12/28 10:53:56;;;;;;;6.95;3.97;;;;;;;;;;5064386;28;20055;-85
2022/12/28 10:56:27;;;;;;;4.78;2.90;;;;;;;;;;5067245;28;20026;-85
2022/12/28 10:59:13;;;;;;;5.20;2.80;;;;;;;;;;5066064;28;20031;-85
2022/12/28 11:01:40;;;;;;;5.10;2.63;;;;;;;;;;5084764;28;20052;-83
2022/12/28 11:04:18;;;;;;;5.70;3.15;;;;;;;;;;5075266;28;20031;-84
2022/12/28 11:06:54;;;;;;;5.45;3.33;;;;;;;;;;5091755;28;20020;-86
2022/12/28 11:09:28;;;;;;;3.17;2.30;;;;;;;;;;5092289;28;20031;-85
2022/12/28 11:12:13;;;;;;;4.57;2.65;;;;;;;;;;5091519;28;20028;-83
2022/12/28 11:14:39;;;;;;;5.25;2.20;;;;;;;;;;5092004;28;20283;-85
2022/12/28 11:17:29;;;;;;;3.85;2.50;;;;;;;;;;5073497;28;20114;-85
2022/12/28 11:20:07;;;;;;;4.32;2.88;;;;;;;;;;5078360;28;20160;-85
2022/12/28 11:22:32;;;;;;;3.10;2.33;;;;;;;;;;5073409;28;20024;-85
2022/12/28 11:24:59;;;;;;;4.00;3.08;;;;;;;;;;5091129;28;20081;-85
2022/12/28 11:27:24;;;;;;;4.38;2.38;;;;;;;;;;5072535;28;20043;-86
2022/12/28 11:29:52;;;;;;;2.58;1.95;;;;;;;;;;5089527;28;20028;-85
2022/12/28 11:32:28;;;;;;;3.88;2.28;;;;;;;;;;5073549;28;20035;-85
2022/12/28 11:34:55;;;;;;;5.80;2.92;;;;;;;;;;5073906;28;20023;-84
2022/12/28 11:37:20;;;;;;;4.85;2.72;;;;;;;;;;5073421;28;20032;-83
2022/12/28 11:39:47;;;;;;;5.30;2.95;;;;;;;;;;5074007;28;20031;-83
2022/12/28 11:42:31;;;;;;;3.95;2.88;;;;;;;;;;5091270;28;20035;-83
2022/12/28 11:45:00;;;;;;;3.75;2.53;;;;;;;;;;5089558;28;20093;-83
2022/12/28 11:47:32;;;;;;;4.47;2.47;;;;;;;;;;5090595;28;20037;-85
2022/12/28 11:50:35;;;;;;;2.70;2.50;;;;;;;;;;5073689;28;20030;-84
2022/12/28 11:53:02;;;;;;;3.78;2.42;;;;;;;;;;5091016;28;20028;-83
2022/12/28 11:55:36;;;;;;;4.53;2.97;;;;;;;;;;5091472;28;20058;-84
2022/12/28 11:58:44;;;;;;;4.00;2.47;;;;;;;;;;5091489;28;20503;-83
2022/12/28 12:01:32;;;;;;;4.00;2.88;;;;;;;;;;5076509;28;20040;-83
2022/12/28 12:03:57;;;;;;;4.53;3.35;;;;;;;;;;5089099;28;20047;-84
2022/12/28 12:06:45;;;;;;;4.78;3.40;;;;;;;;;;5073337;28;20471;-83
2022/12/28 12:09:20;;;;;;;3.75;3.05;;;;;;;;;;5089413;28;20081;-84
2022/12/28 12:12:02;;;;;;;5.85;3.63;;;;;;;;;;5073126;28;20460;-84
2022/12/28 12:14:39;;;;;;;6.93;3.65;;;;;;;;;;5091094;28;20035;-85
2022/12/28 12:17:18;;;;;;;7.13;3.38;;;;;;;;;;5073462;28;20027;-84
2022/12/28 12:19:50;;;;;;;5.22;2.97;;;;;;;;;;5072123;28;20365;-85
2022/12/28 12:22:27;;;;;;;4.95;3.63;;;;;;;;;;5090996;28;20042;-85
2022/12/28 12:25:08;;;;;;;5.00;2.40;;;;;;;;;;5089148;28;20507;-85
2022/12/28 12:27:41;;;;;;;4.68;3.50;;;;;;;;;;5089220;28;20449;-85
2022/12/28 12:30:16;;;;;;;4.45;3.22;;;;;;;;;;5090067;28;20028;-85
2022/12/28 12:32:43;;;;;;;6.43;3.17;;;;;;;;;;5071983;28;20051;-84
2022/12/28 12:35:18;;;;;;;3.63;2.92;;;;;;;;;;5092883;28;20020;-85
2022/12/28 12:38:04;;;;;;;6.07;3.67;;;;;;;;;;5075005;28;20020;-84
2022/12/28 12:41:07;;;;;;;4.82;2.90;;;;;;;;;;5092181;28;20043;-85
2022/12/28 12:43:48;;;;;;;6.80;4.07;;;;;;;;;;5093272;28;20463;-84
2022/12/28 12:46:33;;;;;;;4.15;3.75;;;;;;;;;;5075550;28;20032;-84
2022/12/28 12:48:59;;;;;;;7.15;5.40;;;;;;;;;;5075669;28;20459;-83
2022/12/28 12:51:30;;;;;;;7.80;4.47;;;;;;;;;;5075317;28;20026;-84
2022/12/28 12:54:04;;;;;;;10.52;6.00;;;;;;;;;;5077371;28;20026;-84
2022/12/28 12:56:39;;;;;;;5.50;3.90;;;;;;;;;;5075670;28;20027;-85
2022/12/28 12:59:32;;;;;;;7.90;5.22;;;;;;;;;;5074996;28;20031;-84
2022/12/28 13:02:31;;;;;;;5.55;3.58;;;;;;;;;;5093258;28;20024;-84
2022/12/28 13:05:00;;;;;;;14.07;8.18;;;;;;;;;;5075325;28;20036;-84
2022/12/28 13:07:26;;;;;;;4.70;3.38;;;;;;;;;;5093852;28;20080;-84
2022/12/28 13:09:55;;;;;;;6.80;4.20;;;;;;;;;;5092942;28;20064;-83
2022/12/28 13:12:22;;;;;;;7.25;5.30;;;;;;;;;;5075332;28;20042;-84
2022/12/28 13:14:55;;;;;;;6.22;3.92;;;;;;;;;;5092781;28;20078;-84
2022/12/28 13:17:21;;;;;;;5.80;3.58;;;;;;;;;;5093089;28;20092;-84
2022/12/28 13:19:47;;;;;;;10.40;4.45;;;;;;;;;;5092894;28;20044;-83
2022/12/28 13:22:32;;;;;;;6.65;4.30;;;;;;;;;;5074901;28;20487;-83
2022/12/28 13:24:58;;;;;;;6.65;3.90;;;;;;;;;;5092456;28;20853;-84
2022/12/28 13:27:34;;;;;;;6.85;4.28;;;;;;;;;;5073940;28;20080;-84
2022/12/28 13:30:01;;;;;;;7.35;4.53;;;;;;;;;;5093115;28;20032;-84
2022/12/28 13:32:33;;;;;;;5.65;3.92;;;;;;;;;;5091726;28;20108;-84
2022/12/28 13:34:58;;;;;;;7.10;4.60;;;;;;;;;;5092444;28;20027;-83
2022/12/28 13:37:24;;;;;;;5.93;3.97;;;;;;;;;;5091916;28;20043;-84
2022/12/28 13:39:49;;;;;;;7.75;4.95;;;;;;;;;;5076089;28;20024;-85
2022/12/28 13:42:35;;;;;;;5.43;3.95;;;;;;;;;;5076265;28;20020;-84
2022/12/28 13:45:03;;;;;;;9.32;3.70;;;;;;;;;;5092841;28;20745;-84
2022/12/28 13:47:42;;;;;;;7.15;4.25;;;;;;;;;;5075925;28;20110;-84
2022/12/28 13:50:23;;;;;;;5.40;3.78;;;;;;;;;;5093379;28;20494;-83
2022/12/28 13:53:05;;;;;;;7.35;4.47;;;;;;;;;;5091602;28;20055;-86
2022/12/28 13:55:39;;;;;;;5.20;3.63;;;;;;;;;;5093065;28;20476;-87
2022/12/28 13:58:17;;;;;;;7.63;4.20;;;;;;;;;;5075492;28;20031;-85
2022/12/28 14:00:48;;;;;;;6.75;4.65;;;;;;;;;;5092526;28;20036;-84
2022/12/28 14:03:14;;;;;;;4.80;3.65;;;;;;;;;;5076466;28;20357;-86
2022/12/28 14:05:46;;;;;;;6.78;4.43;;;;;;;;;;5076004;28;20024;-85
2022/12/28 14:08:14;;;;;;;10.13;4.57;;;;;;;;;;5075088;28;20111;-86
2022/12/28 14:10:40;;;;;;;7.88;4.03;;;;;;;;;;5075225;28;20020;-86
2022/12/28 14:13:07;;;;;;;5.15;3.67;;;;;;;;;;5093854;28;20032;-84
2022/12/28 14:15:34;;;;;;;7.25;4.00;;;;;;;;;;5093782;28;20097;-85
2022/12/28 14:18:00;;;;;;;8.32;3.97;;;;;;;;;;5092749;28;20387;-84
2022/12/28 14:20:26;;;;;;;8.60;4.45;;;;;;;;;;5073633;28;20119;-85
2022/12/28 14:22:51;;;;;;;9.82;4.68;;;;;;;;;;5073571;28;20115;-83
2022/12/28 14:25:21;;;;;;;9.93;5.80;;;;;;;;;;5086707;28;20020;-84
2022/12/28 14:27:57;;;;;;;7.93;4.25;;;;;;;;;;5062174;28;20519;-82
2022/12/28 14:30:30;;;;;;;12.13;5.05;;;;;;;;;;5079082;28;20028;-82
2022/12/28 14:32:58;;;;;;;5.43;4.13;;;;;;;;;;5082403;28;20032;-84
2022/12/28 14:35:25;;;;;;;6.38;4.38;;;;;;;;;;5089945;28;20463;-84
2022/12/28 14:37:54;;;;;;;8.45;4.93;;;;;;;;;;5071975;28;20081;-87
2022/12/28 14:40:31;;;;;;;7.60;4.97;;;;;;;;;;5086050;28;20376;-87
2022/12/28 14:43:18;;;;;;;7.82;4.60;;;;;;;;;;5063716;28;20503;-85
2022/12/28 14:45:46;;;;;;;9.45;5.80;;;;;;;;;;5064665;28;20082;-85
2022/12/28 14:48:39;;;;;;;6.07;3.90;;;;;;;;;;5078990;28;20029;-86
2022/12/28 14:51:13;;;;;;;6.40;3.65;;;;;;;;;;5077103;28;20032;-88
2022/12/28 14:53:38;;;;;;;6.28;3.88;;;;;;;;;;5082673;28;20038;-87
2022/12/28 14:56:12;;;;;;;4.72;3.90;;;;;;;;;;5061822;28;20032;-84
2022/12/28 14:58:53;;;;;;;5.55;3.97;;;;;;;;;;5082539;28;20361;-84
2022/12/28 15:01:20;;;;;;;6.72;5.22;;;;;;;;;;5060963;28;20139;-84
2022/12/28 15:03:58;;;;;;;9.13;4.68;;;;;;;;;;5068827;28;20047;-85
2022/12/28 15:06:29;;;;;;;7.13;4.47;;;;;;;;;;5077365;28;20030;-83
2022/12/28 15:08:57;;;;;;;8.13;3.92;;;;;;;;;;5078177;28;20028;-85
2022/12/28 15:11:24;;;;;;;8.30;4.70;;;;;;;;;;5077799;28;20089;-85
2022/12/28 15:13:50;;;;;;;7.20;4.85;;;;;;;;;;5084466;28;20036;-81
2022/12/28 15:16:17;;;;;;;7.20;4.88;;;;;;;;;;5089255;28;20082;-86
2022/12/28 15:18:43;;;;;;;7.75;4.63;;;;;;;;;;5065458;28;20111;-84
2022/12/28 15:21:20;;;;;;;12.80;4.85;;;;;;;;;;5085030;28;21613;-85
2022/12/28 15:23:51;;;;;;;6.38;3.90;;;;;;;;;;5086607;28;20539;-85
2022/12/28 15:26:16;;;;;;;;;;;;;;;;;;5085382;28;20510;-83
2022/12/28 15:28:42;;;;;;;8.07;5.13;;;;;;;;;;5070301;28;19966;-83
2022/12/28 15:31:10;;;;;;;7.32;5.20;;;;;;;;;;5071577;28;20028;-84
2022/12/28 15:33:36;;;;;;;7.28;4.97;;;;;;;;;;5090108;28;20031;-84
2022/12/28 15:36:07;;;;;;;7.32;5.57;;;;;;;;;;5090055;28;20031;-82